Time;durP1;ratioP1;P1;durP2;ratioP2;P2;SDS_P1;SDS_P2;PMS_P1;PMS_P2;Temp;Humidity;BMP_temperature;BMP_pressure;BME280_temperature;BME280_humidity;BME280_pressure;Samples;Min_cycle;Max_cycle;Signal;HPM_P1;HPM_P2
2022/09/07 00:00:52;;;;;;;10.13;7.60;;;;;;;;;;5053742;28;20304;-72
2022/09/07 00:03:20;;;;;;;8.95;7.82;;;;;;;;;;5048569;28;20203;-72
2022/09/07 00:05:50;;;;;;;9.23;7.68;;;;;;;;;;5041678;28;20709;-72
2022/09/07 00:08:21;;;;;;;8.73;7.93;;;;;;;;;;5054192;28;20207;-72
2022/09/07 00:10:53;;;;;;;9.80;8.13;;;;;;;;;;5054363;28;20627;-72
2022/09/07 00:13:22;;;;;;;9.15;8.05;;;;;;;;;;5052381;28;20223;-72
2022/09/07 00:15:50;;;;;;;8.50;7.68;;;;;;;;;;5053885;28;20206;-72
2022/09/07 00:18:19;;;;;;;9.80;8.57;;;;;;;;;;5053412;28;20612;-72
2022/09/07 00:20:48;;;;;;;9.80;8.15;;;;;;;;;;5052322;28;20229;-72
2022/09/07 00:23:16;;;;;;;8.43;7.57;;;;;;;;;;5045161;28;20210;-72
2022/09/07 00:25:46;;;;;;;8.80;7.95;;;;;;;;;;5054480;28;20286;-72
2022/09/07 00:28:20;;;;;;;8.65;7.80;;;;;;;;;;5054908;28;20302;-72
2022/09/07 00:30:49;;;;;;;8.50;7.72;;;;;;;;;;5052156;28;20223;-72
2022/09/07 00:33:17;;;;;;;12.48;7.47;;;;;;;;;;5053331;28;20223;-72
2022/09/07 00:35:46;;;;;;;8.75;7.93;;;;;;;;;;5052874;28;20199;-72
2022/09/07 00:38:14;;;;;;;8.70;7.80;;;;;;;;;;5053481;28;20199;-72
2022/09/07 00:40:42;;;;;;;9.07;7.53;;;;;;;;;;5049497;28;20227;-72
2022/09/07 00:43:15;;;;;;;8.65;7.82;;;;;;;;;;5054766;28;20223;-72
2022/09/07 00:45:43;;;;;;;9.50;8.60;;;;;;;;;;5049667;28;20242;-72
2022/09/07 00:48:15;;;;;;;12.27;8.70;;;;;;;;;;5040133;28;20199;-73
2022/09/07 00:50:45;;;;;;;8.68;7.82;;;;;;;;;;5053170;28;20219;-72
2022/09/07 00:53:16;;;;;;;9.13;8.32;;;;;;;;;;5053267;28;20223;-72
2022/09/07 00:55:45;;;;;;;9.20;8.02;;;;;;;;;;5047862;28;20210;-72
2022/09/07 00:58:15;;;;;;;8.55;7.85;;;;;;;;;;5053062;28;20207;-72
2022/09/07 01:00:45;;;;;;;9.05;8.25;;;;;;;;;;5053120;28;20223;-72
2022/09/07 01:03:15;;;;;;;10.25;8.43;;;;;;;;;;5053423;28;20199;-72
2022/09/07 01:05:44;;;;;;;9.20;8.43;;;;;;;;;;5052532;28;20575;-72
2022/09/07 01:08:13;;;;;;;9.70;8.60;;;;;;;;;;5047220;28;20206;-72
2022/09/07 01:10:42;;;;;;;10.40;7.80;;;;;;;;;;5052155;28;20226;-72
2022/09/07 01:13:11;;;;;;;11.35;8.00;;;;;;;;;;5052298;28;20234;-72
2022/09/07 01:15:46;;;;;;;10.18;7.72;;;;;;;;;;5050767;28;20211;-72
2022/09/07 01:18:20;;;;;;;10.85;7.80;;;;;;;;;;5049767;28;20209;-72
2022/09/07 01:20:58;;;;;;;8.57;7.72;;;;;;;;;;5050634;28;20223;-72
2022/09/07 01:23:52;;;;;;;8.93;8.18;;;;;;;;;;5051276;28;20203;-72
2022/09/07 01:26:30;;;;;;;8.10;7.50;;;;;;;;;;5050718;28;20222;-72
2022/09/07 01:29:04;;;;;;;8.45;7.72;;;;;;;;;;5051720;28;20222;-72
2022/09/07 01:31:37;;;;;;;9.70;8.00;;;;;;;;;;5051916;28;20231;-72
2022/09/07 01:34:10;;;;;;;8.38;7.57;;;;;;;;;;5049322;28;20817;-72
2022/09/07 01:36:42;;;;;;;8.10;7.40;;;;;;;;;;5052383;28;20577;-72
2022/09/07 01:39:11;;;;;;;8.85;7.65;;;;;;;;;;5050148;28;20214;-73
2022/09/07 01:41:43;;;;;;;8.95;8.05;;;;;;;;;;5050143;28;20227;-72
2022/09/07 01:44:22;;;;;;;8.70;7.80;;;;;;;;;;5048221;28;20199;-72
2022/09/07 01:46:53;;;;;;;8.93;8.13;;;;;;;;;;5048873;28;20215;-72
2022/09/07 01:49:23;;;;;;;8.57;7.57;;;;;;;;;;5050503;28;20214;-72
2022/09/07 01:51:53;;;;;;;7.93;7.22;;;;;;;;;;5049424;28;20637;-72
2022/09/07 01:54:23;;;;;;;8.73;7.88;;;;;;;;;;5050810;28;20199;-72
2022/09/07 01:56:54;;;;;;;9.15;7.38;;;;;;;;;;5047873;28;20207;-72
2022/09/07 01:59:29;;;;;;;8.07;7.10;;;;;;;;;;5049724;28;20202;-72
2022/09/07 02:02:01;;;;;;;7.93;7.13;;;;;;;;;;5037192;28;20562;-72
2022/09/07 02:04:34;;;;;;;8.52;7.30;;;;;;;;;;5047276;28;20671;-72
2022/09/07 02:07:07;;;;;;;8.38;7.57;;;;;;;;;;5051091;28;20210;-72
2022/09/07 02:09:37;;;;;;;9.32;7.93;;;;;;;;;;5056774;28;20237;-72
2022/09/07 02:12:11;;;;;;;8.30;7.60;;;;;;;;;;5055579;28;20592;-72
2022/09/07 02:14:43;;;;;;;8.30;7.30;;;;;;;;;;5054848;28;20203;-72
2022/09/07 02:17:18;;;;;;;8.18;7.38;;;;;;;;;;5055069;28;20660;-72
2022/09/07 02:19:50;;;;;;;7.93;7.22;;;;;;;;;;5039810;28;20652;-72
2022/09/07 02:22:21;;;;;;;8.07;7.40;;;;;;;;;;5053783;28;20203;-72
2022/09/07 02:24:51;;;;;;;7.97;7.25;;;;;;;;;;5050010;28;20298;-72
2022/09/07 02:27:22;;;;;;;8.05;7.30;;;;;;;;;;5054495;28;20219;-72
2022/09/07 02:29:53;;;;;;;8.73;7.55;;;;;;;;;;5055308;28;20199;-72
2022/09/07 02:32:21;;;;;;;7.90;7.20;;;;;;;;;;5044692;28;20203;-72
2022/09/07 02:34:50;;;;;;;7.85;7.05;;;;;;;;;;5047005;28;20212;-72
2022/09/07 02:37:19;;;;;;;8.20;7.50;;;;;;;;;;5055375;28;20203;-73
2022/09/07 02:39:48;;;;;;;11.45;7.70;;;;;;;;;;5045850;28;20238;-72
2022/09/07 02:42:16;;;;;;;8.32;7.63;;;;;;;;;;5044135;28;20639;-72
2022/09/07 02:44:45;;;;;;;7.80;7.10;;;;;;;;;;5049147;28;20225;-72
2022/09/07 02:47:19;;;;;;;8.43;7.72;;;;;;;;;;5053079;28;20226;-72
2022/09/07 02:50:02;;;;;;;8.68;7.88;;;;;;;;;;5035919;28;20265;-72
2022/09/07 02:52:34;;;;;;;8.60;7.65;;;;;;;;;;5043892;28;20195;-72
2022/09/07 02:55:07;;;;;;;8.57;7.78;;;;;;;;;;5039498;28;20208;-72
2022/09/07 02:57:39;;;;;;;8.02;7.32;;;;;;;;;;5048617;28;20211;-72
2022/09/07 03:00:09;;;;;;;10.70;7.55;;;;;;;;;;5054290;28;20203;-72
2022/09/07 03:02:43;;;;;;;8.07;7.45;;;;;;;;;;5052869;28;20204;-72
2022/09/07 03:05:17;;;;;;;8.13;7.30;;;;;;;;;;5054542;28;20214;-72
2022/09/07 03:07:47;;;;;;;8.10;7.32;;;;;;;;;;5040315;28;20211;-72
2022/09/07 03:10:17;;;;;;;8.07;7.38;;;;;;;;;;5055209;28;20222;-72
2022/09/07 03:12:47;;;;;;;8.60;7.93;;;;;;;;;;5053743;28;20207;-72
2022/09/07 03:15:16;;;;;;;8.57;7.72;;;;;;;;;;5055157;28;20234;-72
2022/09/07 03:17:46;;;;;;;10.07;8.00;;;;;;;;;;5054947;28;20210;-72
2022/09/07 03:20:16;;;;;;;8.70;7.80;;;;;;;;;;5054039;28;20224;-72
2022/09/07 03:22:45;;;;;;;8.60;7.90;;;;;;;;;;5053768;28;20766;-72
2022/09/07 03:25:14;;;;;;;8.43;7.70;;;;;;;;;;5052303;28;20221;-72
2022/09/07 03:27:42;;;;;;;8.65;7.85;;;;;;;;;;5045888;28;20388;-72
2022/09/07 03:30:12;;;;;;;9.02;8.15;;;;;;;;;;5052231;28;20238;-73
2022/09/07 03:32:40;;;;;;;9.00;8.18;;;;;;;;;;5054215;28;20203;-72
2022/09/07 03:35:10;;;;;;;9.40;8.20;;;;;;;;;;5052724;28;20641;-72
2022/09/07 03:37:41;;;;;;;9.13;8.00;;;;;;;;;;5055097;28;20199;-72
2022/09/07 03:40:11;;;;;;;8.55;7.75;;;;;;;;;;5052596;28;20203;-73
2022/09/07 03:42:40;;;;;;;9.35;8.45;;;;;;;;;;5054595;28;20226;-72
2022/09/07 03:45:09;;;;;;;9.77;8.95;;;;;;;;;;5052762;28;20208;-72
2022/09/07 03:47:38;;;;;;;9.32;8.43;;;;;;;;;;5054006;28;20659;-72
2022/09/07 03:50:07;;;;;;;9.82;8.95;;;;;;;;;;5053389;28;20213;-72
2022/09/07 03:52:37;;;;;;;9.95;9.00;;;;;;;;;;5054040;28;20672;-72
2022/09/07 03:55:06;;;;;;;9.50;8.55;;;;;;;;;;5034931;28;20639;-72
2022/09/07 03:57:35;;;;;;;9.63;8.73;;;;;;;;;;5041848;28;20214;-72
2022/09/07 04:00:04;;;;;;;10.23;9.25;;;;;;;;;;5053662;28;20252;-72
2022/09/07 04:02:32;;;;;;;9.95;9.00;;;;;;;;;;5052259;28;20196;-72
2022/09/07 04:05:01;;;;;;;9.75;8.73;;;;;;;;;;5054756;28;20230;-72
2022/09/07 04:07:29;;;;;;;9.65;8.75;;;;;;;;;;5052144;28;20252;-72
2022/09/07 04:09:59;;;;;;;9.90;8.95;;;;;;;;;;5052479;28;20684;-73
2022/09/07 04:12:28;;;;;;;10.55;9.55;;;;;;;;;;5053895;28;20211;-72
2022/09/07 04:14:56;;;;;;;9.70;8.90;;;;;;;;;;5053575;28;20227;-72
2022/09/07 04:17:25;;;;;;;9.70;8.80;;;;;;;;;;5053595;28;20210;-72
2022/09/07 04:19:54;;;;;;;11.38;9.77;;;;;;;;;;5053024;28;20207;-73
2022/09/07 04:22:23;;;;;;;9.80;8.65;;;;;;;;;;5051763;28;20210;-73
2022/09/07 04:24:51;;;;;;;9.98;9.07;;;;;;;;;;5036008;28;20210;-73
2022/09/07 04:27:21;;;;;;;10.52;9.45;;;;;;;;;;5051699;28;20649;-72
2022/09/07 04:29:49;;;;;;;10.90;9.75;;;;;;;;;;5052475;28;20621;-73
2022/09/07 04:32:18;;;;;;;11.55;10.60;;;;;;;;;;5040529;28;20218;-72
2022/09/07 04:34:46;;;;;;;11.65;10.55;;;;;;;;;;5052247;28;20236;-72
2022/09/07 04:37:14;;;;;;;12.82;11.55;;;;;;;;;;5053084;28;20203;-73
2022/09/07 04:39:43;;;;;;;12.73;11.43;;;;;;;;;;5052631;28;20199;-73
2022/09/07 04:42:11;;;;;;;12.98;11.75;;;;;;;;;;5052580;28;20223;-72
2022/09/07 04:44:41;;;;;;;12.88;11.68;;;;;;;;;;5053112;28;20209;-72
2022/09/07 04:47:10;;;;;;;13.80;12.52;;;;;;;;;;5051778;28;20656;-73
2022/09/07 04:49:38;;;;;;;16.08;14.57;;;;;;;;;;5049319;28;20277;-73
2022/09/07 04:52:07;;;;;;;14.55;13.13;;;;;;;;;;5052812;28;20219;-74
2022/09/07 04:54:35;;;;;;;13.82;12.60;;;;;;;;;;5053300;28;20215;-74
2022/09/07 04:57:03;;;;;;;15.15;13.63;;;;;;;;;;5057058;28;20209;-74
2022/09/07 04:59:32;;;;;;;15.98;14.48;;;;;;;;;;5050431;28;20226;-73
2022/09/07 05:02:02;;;;;;;15.15;13.75;;;;;;;;;;5051238;28;20237;-74
2022/09/07 05:04:30;;;;;;;14.73;13.43;;;;;;;;;;5048949;28;20202;-74
2022/09/07 05:06:59;;;;;;;15.73;14.10;;;;;;;;;;5052765;28;20195;-74
2022/09/07 05:09:27;;;;;;;15.70;13.97;;;;;;;;;;5053309;28;20210;-74
2022/09/07 05:11:56;;;;;;;14.70;13.50;;;;;;;;;;5052250;28;20242;-74
2022/09/07 05:14:24;;;;;;;14.13;12.77;;;;;;;;;;5051459;28;20231;-73
2022/09/07 05:16:52;;;;;;;13.87;12.60;;;;;;;;;;5050503;28;20204;-73
2022/09/07 05:19:23;;;;;;;15.15;13.85;;;;;;;;;;5052814;28;20632;-73
2022/09/07 05:21:52;;;;;;;15.15;13.90;;;;;;;;;;5048075;28;20219;-74
2022/09/07 05:24:20;;;;;;;14.50;13.32;;;;;;;;;;5056364;28;20215;-74
2022/09/07 05:26:49;;;;;;;13.55;12.35;;;;;;;;;;5052992;28;20549;-74
2022/09/07 05:29:17;;;;;;;13.32;12.23;;;;;;;;;;5053307;28;20211;-74
2022/09/07 05:32:06;;;;;;;13.70;12.40;;;;;;;;;;5051828;28;20223;-74
2022/09/07 05:34:35;;;;;;;13.23;11.93;;;;;;;;;;5053021;28;20672;-74
2022/09/07 05:37:04;;;;;;;13.65;12.35;;;;;;;;;;5052197;28;20252;-74
2022/09/07 05:39:32;;;;;;;13.13;11.77;;;;;;;;;;5053222;28;20210;-74
2022/09/07 05:42:01;;;;;;;14.05;12.70;;;;;;;;;;5060767;28;20651;-74
2022/09/07 05:44:30;;;;;;;14.05;12.85;;;;;;;;;;5047813;28;20228;-74
2022/09/07 05:47:14;;;;;;;13.70;12.32;;;;;;;;;;5052974;28;20589;-74
2022/09/07 05:49:44;;;;;;;13.45;12.05;;;;;;;;;;5053049;28;20203;-74
2022/09/07 05:52:13;;;;;;;13.45;12.25;;;;;;;;;;5052553;28;20695;-74
2022/09/07 05:54:41;;;;;;;12.05;11.05;;;;;;;;;;5052710;28;20635;-74
2022/09/07 05:57:11;;;;;;;12.98;11.80;;;;;;;;;;5049119;28;20207;-74
2022/09/07 05:59:40;;;;;;;13.38;12.18;;;;;;;;;;5051986;28;20207;-74
2022/09/07 06:02:08;;;;;;;14.13;12.93;;;;;;;;;;5052220;28;20218;-74
2022/09/07 06:04:37;;;;;;;13.77;12.57;;;;;;;;;;5052023;28;20199;-74
2022/09/07 06:07:07;;;;;;;14.77;13.38;;;;;;;;;;5052194;28;20207;-74
2022/09/07 06:09:49;;;;;;;14.02;12.82;;;;;;;;;;5052623;28;20286;-74
2022/09/07 06:12:38;;;;;;;13.77;12.40;;;;;;;;;;5051582;28;20276;-74
2022/09/07 06:15:06;;;;;;;14.60;13.20;;;;;;;;;;5052066;28;20281;-74
2022/09/07 06:17:35;;;;;;;13.10;11.90;;;;;;;;;;5052273;28;20217;-74
2022/09/07 06:20:04;;;;;;;13.57;12.38;;;;;;;;;;5052123;28;20211;-74
2022/09/07 06:22:35;;;;;;;13.30;12.18;;;;;;;;;;5047279;28;20260;-74
2022/09/07 06:25:04;;;;;;;13.20;11.93;;;;;;;;;;5052548;28;20188;-74
2022/09/07 06:27:32;;;;;;;13.02;11.85;;;;;;;;;;5052085;28;20726;-74
2022/09/07 06:30:00;;;;;;;14.05;12.32;;;;;;;;;;5052402;28;20585;-74
2022/09/07 06:32:29;;;;;;;12.55;11.55;;;;;;;;;;5051745;28;20207;-74
2022/09/07 06:35:14;;;;;;;14.25;12.77;;;;;;;;;;5052174;28;20277;-74
2022/09/07 06:37:44;;;;;;;13.10;11.90;;;;;;;;;;5051914;28;20225;-74
2022/09/07 06:40:12;;;;;;;13.63;12.43;;;;;;;;;;5035878;28;20273;-74
2022/09/07 06:42:41;;;;;;;14.35;13.15;;;;;;;;;;5051171;28;20242;-74
2022/09/07 06:45:10;;;;;;;13.15;11.90;;;;;;;;;;5052045;28;20210;-74
2022/09/07 06:47:39;;;;;;;13.35;12.05;;;;;;;;;;5051871;28;20246;-74
2022/09/07 06:50:08;;;;;;;14.63;13.43;;;;;;;;;;5051627;28;20199;-74
2022/09/07 06:52:37;;;;;;;14.77;13.43;;;;;;;;;;5052122;28;20917;-74
2022/09/07 06:55:27;;;;;;;15.20;13.77;;;;;;;;;;5055495;28;20258;-74
2022/09/07 06:57:56;;;;;;;14.45;13.32;;;;;;;;;;5055748;28;20203;-74
2022/09/07 07:00:24;;;;;;;14.65;13.23;;;;;;;;;;5055443;28;20695;-74
2022/09/07 07:02:52;;;;;;;13.85;12.75;;;;;;;;;;5055304;28;20208;-74
2022/09/07 07:05:21;;;;;;;13.70;12.40;;;;;;;;;;5055765;28;20203;-74
2022/09/07 07:07:49;;;;;;;12.80;11.57;;;;;;;;;;5054915;28;20195;-74
2022/09/07 07:10:18;;;;;;;12.60;11.50;;;;;;;;;;5055518;28;20249;-74
2022/09/07 07:12:55;;;;;;;11.70;10.60;;;;;;;;;;5055471;28;20687;-74
2022/09/07 07:15:27;;;;;;;10.80;9.90;;;;;;;;;;5055188;28;20688;-74
2022/09/07 07:17:55;;;;;;;10.73;9.63;;;;;;;;;;5050844;28;20656;-74
2022/09/07 07:20:41;;;;;;;15.05;10.90;;;;;;;;;;5055498;28;20218;-74
2022/09/07 07:23:11;;;;;;;10.90;9.80;;;;;;;;;;5055429;28;20254;-74
2022/09/07 07:25:39;;;;;;;10.85;9.95;;;;;;;;;;5054437;28;20253;-74
2022/09/07 07:28:09;;;;;;;10.02;9.02;;;;;;;;;;5053248;28;20207;-74
2022/09/07 07:30:58;;;;;;;9.90;8.80;;;;;;;;;;5055172;28;20754;-74
2022/09/07 07:33:30;;;;;;;9.68;8.77;;;;;;;;;;5054894;28;20672;-74
2022/09/07 07:36:07;;;;;;;9.15;8.35;;;;;;;;;;5053923;28;20219;-74
2022/09/07 07:38:36;;;;;;;8.40;7.70;;;;;;;;;;5055118;28;20633;-74
2022/09/07 07:41:25;;;;;;;8.45;7.75;;;;;;;;;;5054821;28;20309;-74
2022/09/07 07:44:15;;;;;;;7.63;6.93;;;;;;;;;;5054692;28;20294;-74
2022/09/07 07:46:44;;;;;;;7.97;7.28;;;;;;;;;;5054323;28;20294;-74
2022/09/07 07:49:12;;;;;;;7.05;6.55;;;;;;;;;;5055121;28;20207;-74
2022/09/07 07:51:40;;;;;;;7.78;6.95;;;;;;;;;;5054874;28;20313;-74
2022/09/07 07:54:29;;;;;;;7.90;7.18;;;;;;;;;;5053900;28;20241;-74
2022/09/07 07:56:57;;;;;;;7.90;7.18;;;;;;;;;;5054226;28;20302;-74
2022/09/07 07:59:27;;;;;;;7.80;7.00;;;;;;;;;;5054786;28;20203;-75
2022/09/07 08:01:55;;;;;;;7.93;6.95;;;;;;;;;;5053874;28;20258;-74
2022/09/07 08:04:24;;;;;;;7.10;6.18;;;;;;;;;;5053419;28;20195;-74
2022/09/07 08:06:52;;;;;;;7.30;6.18;;;;;;;;;;5053880;28;20283;-73
2022/09/07 08:09:20;;;;;;;5.97;5.38;;;;;;;;;;5054211;28;20242;-73
2022/09/07 08:11:49;;;;;;;5.57;5.10;;;;;;;;;;5053597;28;20227;-73
2022/09/07 08:14:17;;;;;;;5.40;4.90;;;;;;;;;;5034284;28;20250;-74
2022/09/07 08:16:47;;;;;;;4.72;4.32;;;;;;;;;;5042588;28;20231;-73
2022/09/07 08:19:16;;;;;;;4.35;3.95;;;;;;;;;;5054051;28;20207;-73
2022/09/07 08:21:44;;;;;;;4.38;3.97;;;;;;;;;;5053534;28;20273;-74
2022/09/07 08:24:12;;;;;;;4.20;3.78;;;;;;;;;;5038042;28;20779;-74
2022/09/07 08:26:41;;;;;;;4.00;3.40;;;;;;;;;;5053688;28;20295;-73
2022/09/07 08:29:09;;;;;;;4.03;3.60;;;;;;;;;;5054093;28;20286;-73
2022/09/07 08:31:37;;;;;;;3.72;3.28;;;;;;;;;;5053436;28;20261;-75
2022/09/07 08:34:07;;;;;;;3.55;2.83;;;;;;;;;;5053869;28;20207;-73
2022/09/07 08:36:36;;;;;;;3.50;3.20;;;;;;;;;;5053558;28;20219;-74
2022/09/07 08:39:04;;;;;;;3.40;2.90;;;;;;;;;;5054067;28;20286;-74
2022/09/07 08:41:39;;;;;;;3.47;3.17;;;;;;;;;;5053474;28;20254;-74
2022/09/07 08:44:13;;;;;;;3.17;2.90;;;;;;;;;;5054323;28;20202;-75
2022/09/07 08:46:44;;;;;;;2.83;2.55;;;;;;;;;;5053441;28;20260;-74
2022/09/07 08:49:17;;;;;;;2.70;2.50;;;;;;;;;;5053639;28;20246;-73
2022/09/07 08:51:48;;;;;;;2.78;2.53;;;;;;;;;;5053094;28;20298;-74
2022/09/07 08:54:17;;;;;;;3.05;2.30;;;;;;;;;;5053486;28;20246;-74
2022/09/07 08:56:46;;;;;;;2.85;2.50;;;;;;;;;;5053292;28;20306;-73
2022/09/07 08:59:38;;;;;;;3.25;2.10;;;;;;;;;;5052511;28;20546;-75
2022/09/07 09:02:09;;;;;;;2.92;2.45;;;;;;;;;;5053079;28;20743;-74
2022/09/07 09:04:59;;;;;;;2.40;2.20;;;;;;;;;;5053026;28;20218;-74
2022/09/07 09:07:50;;;;;;;2.40;2.20;;;;;;;;;;5053163;28;20286;-74
2022/09/07 09:10:23;;;;;;;2.50;2.30;;;;;;;;;;5052564;28;20272;-74
2022/09/07 09:13:03;;;;;;;3.35;2.42;;;;;;;;;;5053435;28;20302;-73
2022/09/07 09:15:36;;;;;;;3.80;2.53;;;;;;;;;;5051754;28;20238;-73
2022/09/07 09:18:12;;;;;;;2.47;2.28;;;;;;;;;;5052645;28;20227;-74
2022/09/07 09:20:47;;;;;;;3.97;2.65;;;;;;;;;;5053591;28;20227;-73
2022/09/07 09:23:16;;;;;;;3.75;2.40;;;;;;;;;;5053674;28;20294;-73
2022/09/07 09:25:48;;;;;;;2.83;2.60;;;;;;;;;;5053251;28;20199;-73
2022/09/07 09:28:17;;;;;;;3.42;2.63;;;;;;;;;;5050589;28;20286;-74
2022/09/07 09:30:46;;;;;;;4.13;2.50;;;;;;;;;;5052668;28;20302;-74
2022/09/07 09:33:17;;;;;;;4.55;2.65;;;;;;;;;;5053187;28;20199;-73
2022/09/07 09:35:48;;;;;;;2.67;2.47;;;;;;;;;;5053378;28;20234;-73
2022/09/07 09:38:38;;;;;;;4.13;2.78;;;;;;;;;;5053407;28;20292;-73
2022/09/07 09:41:08;;;;;;;4.18;2.15;;;;;;;;;;5050079;28;20301;-73
2022/09/07 09:43:39;;;;;;;2.08;1.98;;;;;;;;;;5053299;28;20245;-73
2022/09/07 09:46:17;;;;;;;2.40;1.88;;;;;;;;;;5053158;28;20613;-73
2022/09/07 09:48:50;;;;;;;2.63;2.10;;;;;;;;;;5052568;28;20256;-73
2022/09/07 09:51:20;;;;;;;3.78;2.20;;;;;;;;;;5048546;28;20227;-73
2022/09/07 09:54:24;;;;;;;3.60;2.17;;;;;;;;;;5052918;28;20199;-73
2022/09/07 09:56:52;;;;;;;2.08;1.88;;;;;;;;;;5053087;28;20321;-73
2022/09/07 09:59:22;;;;;;;4.72;2.15;;;;;;;;;;5052896;28;20246;-74
2022/09/07 10:02:29;;;;;;;2.20;2.00;;;;;;;;;;5052554;28;20219;-74
2022/09/07 10:05:21;;;;;;;2.53;2.08;;;;;;;;;;5052555;28;20289;-74
2022/09/07 10:07:53;;;;;;;3.20;1.83;;;;;;;;;;5052972;28;20681;-73
2022/09/07 10:10:21;;;;;;;2.72;1.95;;;;;;;;;;5032802;28;20232;-74
2022/09/07 10:12:53;;;;;;;2.42;2.00;;;;;;;;;;5032934;28;20642;-73
2022/09/07 10:15:26;;;;;;;2.47;1.90;;;;;;;;;;5032860;28;20258;-73
2022/09/07 10:17:55;;;;;;;2.60;1.70;;;;;;;;;;5049080;28;20651;-73
2022/09/07 10:20:30;;;;;;;4.30;2.00;;;;;;;;;;5052984;28;20734;-73
2022/09/07 10:23:00;;;;;;;2.17;1.80;;;;;;;;;;5052761;28;20207;-73
2022/09/07 10:25:30;;;;;;;2.35;1.92;;;;;;;;;;5052783;28;20248;-73
2022/09/07 10:28:03;;;;;;;2.40;2.17;;;;;;;;;;5051960;28;20703;-73
2022/09/07 10:30:36;;;;;;;5.30;2.20;;;;;;;;;;5055997;28;20225;-73
2022/09/07 10:33:07;;;;;;;2.45;2.05;;;;;;;;;;5056494;28;20203;-74
2022/09/07 10:35:40;;;;;;;3.58;2.00;;;;;;;;;;5056532;28;20245;-73
2022/09/07 10:38:15;;;;;;;2.15;1.95;;;;;;;;;;5056069;28;20325;-73
2022/09/07 10:40:45;;;;;;;3.20;2.20;;;;;;;;;;5056404;28;20226;-73
2022/09/07 10:43:17;;;;;;;2.75;2.17;;;;;;;;;;5056467;28;20302;-73
2022/09/07 10:45:56;;;;;;;2.97;1.80;;;;;;;;;;5056279;28;20211;-73
2022/09/07 10:48:28;;;;;;;2.20;2.00;;;;;;;;;;5052680;28;20221;-74
2022/09/07 10:50:58;;;;;;;2.83;2.03;;;;;;;;;;5056500;28;20255;-74
2022/09/07 10:53:43;;;;;;;3.17;2.13;;;;;;;;;;5056699;28;20281;-74
2022/09/07 10:56:13;;;;;;;3.70;1.85;;;;;;;;;;5056632;28;20663;-74
2022/09/07 10:59:00;;;;;;;2.95;2.13;;;;;;;;;;5055952;28;20711;-73
2022/09/07 11:01:35;;;;;;;2.50;2.30;;;;;;;;;;5056700;28;20571;-73
2022/09/07 11:04:16;;;;;;;2.42;1.83;;;;;;;;;;5056333;28;20282;-73
2022/09/07 11:06:46;;;;;;;2.10;1.88;;;;;;;;;;5054728;28;20238;-74
2022/09/07 11:09:24;;;;;;;2.78;1.98;;;;;;;;;;5055657;28;20671;-73
2022/09/07 11:11:57;;;;;;;2.42;2.10;;;;;;;;;;5055242;28;20258;-73
2022/09/07 11:14:33;;;;;;;2.47;2.20;;;;;;;;;;5056018;28;20239;-73
2022/09/07 11:17:04;;;;;;;3.97;2.20;;;;;;;;;;5054421;28;20642;-73
2022/09/07 11:19:34;;;;;;;3.95;1.90;;;;;;;;;;5054623;28;20704;-72
2022/09/07 11:22:07;;;;;;;1.70;1.60;;;;;;;;;;5053892;28;20227;-73
2022/09/07 11:24:40;;;;;;;2.17;1.70;;;;;;;;;;5055725;28;20668;-73
2022/09/07 11:27:10;;;;;;;2.45;1.55;;;;;;;;;;5040736;28;20203;-73
2022/09/07 11:29:43;;;;;;;2.00;1.50;;;;;;;;;;5044488;28;20261;-74
2022/09/07 11:32:14;;;;;;;3.55;1.60;;;;;;;;;;5055572;28;20617;-72
2022/09/07 11:34:45;;;;;;;1.50;1.40;;;;;;;;;;5055595;28;20226;-72
2022/09/07 11:37:17;;;;;;;1.67;1.40;;;;;;;;;;5055529;28;20270;-72
2022/09/07 11:39:48;;;;;;;2.15;1.40;;;;;;;;;;5053856;28;20664;-73
2022/09/07 11:42:21;;;;;;;1.83;1.55;;;;;;;;;;5055048;28;20233;-72
2022/09/07 11:45:15;;;;;;;1.20;1.10;;;;;;;;;;5054391;28;20291;-74
2022/09/07 11:47:45;;;;;;;1.35;1.20;;;;;;;;;;5053612;28;20237;-72
2022/09/07 11:50:15;;;;;;;1.30;1.00;;;;;;;;;;5053887;28;20311;-73
2022/09/07 11:52:45;;;;;;;1.33;1.05;;;;;;;;;;5054269;28;20238;-72
2022/09/07 11:55:19;;;;;;;1.50;1.20;;;;;;;;;;5055114;28;20253;-72
2022/09/07 11:57:58;;;;;;;1.67;1.20;;;;;;;;;;5055233;28;20256;-72
2022/09/07 12:00:31;;;;;;;0.98;0.90;;;;;;;;;;5054989;28;20309;-72
2022/09/07 12:03:04;;;;;;;1.17;1.02;;;;;;;;;;5045457;28;20689;-72
2022/09/07 12:05:45;;;;;;;1.52;1.20;;;;;;;;;;5052763;28;20203;-72
2022/09/07 12:08:27;;;;;;;1.40;1.00;;;;;;;;;;5054883;28;20688;-72
2022/09/07 12:11:06;;;;;;;1.73;1.20;;;;;;;;;;5047492;28;20255;-73
2022/09/07 12:13:45;;;;;;;2.10;1.60;;;;;;;;;;5052089;28;20290;-72
2022/09/07 12:16:19;;;;;;;2.45;1.60;;;;;;;;;;5053930;28;20282;-73
2022/09/07 12:18:57;;;;;;;3.60;1.77;;;;;;;;;;5054511;28;20306;-73
2022/09/07 12:21:31;;;;;;;2.00;1.80;;;;;;;;;;5052732;28;20400;-73
2022/09/07 12:23:59;;;;;;;1.60;1.50;;;;;;;;;;5053531;28;20290;-73
2022/09/07 12:26:49;;;;;;;2.83;1.65;;;;;;;;;;5048030;28;20290;-73
2022/09/07 12:29:20;;;;;;;2.03;1.50;;;;;;;;;;5059779;28;20255;-73
2022/09/07 12:31:49;;;;;;;4.13;1.70;;;;;;;;;;5063830;28;20253;-73
2022/09/07 12:34:39;;;;;;;1.58;1.40;;;;;;;;;;5053772;28;20207;-73
2022/09/07 12:37:22;;;;;;;3.00;1.80;;;;;;;;;;5047282;28;20226;-72
2022/09/07 12:39:51;;;;;;;2.85;1.80;;;;;;;;;;5049070;28;20308;-71
2022/09/07 12:42:25;;;;;;;2.47;1.80;;;;;;;;;;5059600;28;20645;-73
2022/09/07 12:45:22;;;;;;;2.33;1.50;;;;;;;;;;5050838;28;20200;-74
2022/09/07 12:47:56;;;;;;;2.78;1.90;;;;;;;;;;5051653;28;20330;-72
2022/09/07 12:50:28;;;;;;;3.70;1.70;;;;;;;;;;5052922;28;20241;-73
2022/09/07 12:53:16;;;;;;;3.17;1.65;;;;;;;;;;5051068;28;20218;-72
2022/09/07 12:55:57;;;;;;;2.45;1.67;;;;;;;;;;5049049;28;20286;-72
2022/09/07 12:58:51;;;;;;;2.42;1.73;;;;;;;;;;5040682;28;20231;-72
2022/09/07 13:01:31;;;;;;;2.15;1.55;;;;;;;;;;5052539;28;20309;-72
2022/09/07 13:04:14;;;;;;;1.63;1.52;;;;;;;;;;5036710;28;20214;-72
2022/09/07 13:07:03;;;;;;;2.50;1.50;;;;;;;;;;5045643;28;20286;-72
2022/09/07 13:09:33;;;;;;;1.75;1.33;;;;;;;;;;5032751;28;20234;-73
2022/09/07 13:12:04;;;;;;;2.95;1.70;;;;;;;;;;5049024;28;20266;-73
2022/09/07 13:14:37;;;;;;;2.25;1.85;;;;;;;;;;5045547;28;20287;-72
2022/09/07 13:17:24;;;;;;;2.00;1.30;;;;;;;;;;5043585;28;20292;-72
2022/09/07 13:20:17;;;;;;;1.77;1.60;;;;;;;;;;5045528;28;20683;-72
2022/09/07 13:22:55;;;;;;;1.88;1.67;;;;;;;;;;5048638;28;20700;-72
2022/09/07 13:25:44;;;;;;;1.65;1.52;;;;;;;;;;5063807;28;20678;-73
2022/09/07 13:28:22;;;;;;;1.60;1.50;;;;;;;;;;5054435;28;20729;-72
2022/09/07 13:30:59;;;;;;;3.20;1.52;;;;;;;;;;5049440;28;20276;-73
2022/09/07 13:33:51;;;;;;;1.98;1.60;;;;;;;;;;5050296;28;20642;-72
2022/09/07 13:36:38;;;;;;;3.10;1.60;;;;;;;;;;5048398;28;20231;-73
2022/09/07 13:39:10;;;;;;;2.33;1.48;;;;;;;;;;5031029;28;20266;-72
2022/09/07 13:41:42;;;;;;;2.40;1.67;;;;;;;;;;5051431;28;20255;-73
2022/09/07 13:44:18;;;;;;;1.58;1.45;;;;;;;;;;5047935;28;20636;-73
2022/09/07 13:46:58;;;;;;;1.95;1.85;;;;;;;;;;5041394;28;20211;-72
2022/09/07 13:49:42;;;;;;;2.80;2.03;;;;;;;;;;5049453;28;20619;-73
2022/09/07 13:52:14;;;;;;;2.08;1.80;;;;;;;;;;5048686;28;20269;-72
2022/09/07 13:54:57;;;;;;;3.22;1.77;;;;;;;;;;5035815;28;20203;-72
2022/09/07 13:57:28;;;;;;;3.03;1.90;;;;;;;;;;5039231;28;20237;-72
2022/09/07 13:59:56;;;;;;;1.90;1.80;;;;;;;;;;5045462;28;20743;-74
2022/09/07 14:02:28;;;;;;;2.20;1.90;;;;;;;;;;4698807;28;9999589;-72
2022/09/07 14:04:59;;;;;;;3.00;2.30;;;;;;;;;;5045541;28;20210;-73
2022/09/07 14:07:28;;;;;;;3.67;2.10;;;;;;;;;;5046156;28;20249;-73
2022/09/07 14:10:06;;;;;;;2.88;1.98;;;;;;;;;;5038084;28;20262;-73
2022/09/07 14:12:41;;;;;;;2.35;2.15;;;;;;;;;;5045568;28;20302;-73
2022/09/07 14:15:19;;;;;;;4.45;2.20;;;;;;;;;;5047337;28;20642;-73
2022/09/07 14:17:49;;;;;;;4.13;2.10;;;;;;;;;;5047833;28;20241;-73
2022/09/07 14:20:18;;;;;;;2.75;2.10;;;;;;;;;;5054827;28;20234;-73
2022/09/07 14:22:47;;;;;;;3.90;2.90;;;;;;;;;;5050597;28;20242;-73
2022/09/07 14:25:21;;;;;;;2.75;2.45;;;;;;;;;;5046618;28;20278;-73
2022/09/07 14:27:50;;;;;;;3.05;2.63;;;;;;;;;;5047866;28;20207;-72
2022/09/07 14:30:24;;;;;;;3.40;2.75;;;;;;;;;;5050491;28;20268;-73
2022/09/07 14:32:55;;;;;;;4.10;2.70;;;;;;;;;;5051264;28;20222;-73
2022/09/07 14:35:25;;;;;;;3.65;2.80;;;;;;;;;;5050577;28;20199;-73
2022/09/07 14:37:53;;;;;;;3.63;2.58;;;;;;;;;;5050446;28;20227;-72
2022/09/07 14:40:24;;;;;;;2.72;2.53;;;;;;;;;;5047219;28;20254;-73
2022/09/07 14:42:53;;;;;;;3.20;2.60;;;;;;;;;;5049064;28;20211;-74
2022/09/07 14:45:32;;;;;;;3.42;2.80;;;;;;;;;;5031979;28;21089;-73
2022/09/07 14:48:11;;;;;;;3.55;2.60;;;;;;;;;;5044713;28;20203;-73
2022/09/07 14:50:40;;;;;;;2.70;2.30;;;;;;;;;;5050671;28;20751;-72
2022/09/07 14:53:15;;;;;;;3.22;2.60;;;;;;;;;;5051674;28;20207;-72
2022/09/07 14:56:04;;;;;;;2.90;2.70;;;;;;;;;;5052052;28;20241;-74
2022/09/07 14:58:32;;;;;;;3.10;2.80;;;;;;;;;;5053561;28;20199;-73
2022/09/07 15:01:08;;;;;;;3.90;3.22;;;;;;;;;;5052337;28;20231;-72
2022/09/07 15:03:59;;;;;;;3.45;2.90;;;;;;;;;;5051650;28;20544;-73
2022/09/07 15:06:36;;;;;;;3.97;3.10;;;;;;;;;;5051381;28;20295;-73
2022/09/07 15:09:29;;;;;;;5.13;3.30;;;;;;;;;;5032264;28;20196;-72
2022/09/07 15:12:16;;;;;;;3.63;3.03;;;;;;;;;;5035652;28;20223;-72